sensor_id;sensor_type;location;lat;lon;timestamp;P1;durP1;ratioP1;P2;durP2;ratioP2
66874;SDS011;53784;52.630;4.896;2023-08-24T00:00:57;12.02;;;6.68;;
66874;SDS011;53784;52.630;4.896;2023-08-24T00:03:22;12.20;;;7.65;;
66874;SDS011;53784;52.630;4.896;2023-08-24T00:05:48;13.07;;;7.50;;
66874;SDS011;53784;52.630;4.896;2023-08-24T00:08:13;12.07;;;7.53;;
66874;SDS011;53784;52.630;4.896;2023-08-24T00:10:39;11.98;;;7.45;;
66874;SDS011;53784;52.630;4.896;2023-08-24T00:13:04;11.95;;;7.80;;
66874;SDS011;53784;52.630;4.896;2023-08-24T00:15:30;10.43;;;7.20;;
66874;SDS011;53784;52.630;4.896;2023-08-24T00:17:56;12.90;;;7.18;;
66874;SDS011;53784;52.630;4.896;2023-08-24T00:20:21;12.32;;;7.07;;
66874;SDS011;53784;52.630;4.896;2023-08-24T00:22:47;11.88;;;6.90;;
66874;SDS011;53784;52.630;4.896;2023-08-24T00:25:13;10.88;;;7.00;;
66874;SDS011;53784;52.630;4.896;2023-08-24T00:27:39;12.32;;;6.57;;
66874;SDS011;53784;52.630;4.896;2023-08-24T00:30:05;10.82;;;6.78;;
66874;SDS011;53784;52.630;4.896;2023-08-24T00:32:32;11.25;;;6.32;;
66874;SDS011;53784;52.630;4.896;2023-08-24T00:35:01;10.38;;;6.38;;
66874;SDS011;53784;52.630;4.896;2023-08-24T00:37:36;10.23;;;6.20;;
66874;SDS011;53784;52.630;4.896;2023-08-24T00:40:05;10.80;;;6.25;;
66874;SDS011;53784;52.630;4.896;2023-08-24T00:42:39;13.05;;;6.55;;
66874;SDS011;53784;52.630;4.896;2023-08-24T00:45:05;11.32;;;6.63;;
66874;SDS011;53784;52.630;4.896;2023-08-24T00:47:32;12.32;;;6.28;;
66874;SDS011;53784;52.630;4.896;2023-08-24T00:49:58;12.02;;;6.25;;
66874;SDS011;53784;52.630;4.896;2023-08-24T00:52:25;9.38;;;6.00;;
66874;SDS011;53784;52.630;4.896;2023-08-24T00:54:53;12.98;;;6.00;;
66874;SDS011;53784;52.630;4.896;2023-08-24T00:57:18;11.30;;;6.15;;
66874;SDS011;53784;52.630;4.896;2023-08-24T00:59:44;11.70;;;5.95;;
66874;SDS011;53784;52.630;4.896;2023-08-24T01:02:09;11.63;;;6.28;;
66874;SDS011;53784;52.630;4.896;2023-08-24T01:04:36;11.05;;;5.80;;
66874;SDS011;53784;52.630;4.896;2023-08-24T01:07:01;8.43;;;5.63;;
66874;SDS011;53784;52.630;4.896;2023-08-24T01:09:27;9.13;;;5.53;;
66874;SDS011;53784;52.630;4.896;2023-08-24T01:11:58;9.48;;;5.47;;
66874;SDS011;53784;52.630;4.896;2023-08-24T01:14:32;10.32;;;5.65;;
66874;SDS011;53784;52.630;4.896;2023-08-24T01:17:05;9.40;;;5.35;;
66874;SDS011;53784;52.630;4.896;2023-08-24T01:19:38;8.88;;;5.70;;
66874;SDS011;53784;52.630;4.896;2023-08-24T01:22:07;8.10;;;5.18;;
66874;SDS011;53784;52.630;4.896;2023-08-24T01:24:40;8.48;;;5.35;;
66874;SDS011;53784;52.630;4.896;2023-08-24T01:27:06;8.88;;;5.35;;
66874;SDS011;53784;52.630;4.896;2023-08-24T01:29:33;10.55;;;5.05;;
66874;SDS011;53784;52.630;4.896;2023-08-24T01:31:58;8.45;;;4.65;;
66874;SDS011;53784;52.630;4.896;2023-08-24T01:34:24;10.25;;;5.05;;
66874;SDS011;53784;52.630;4.896;2023-08-24T01:36:49;9.20;;;4.95;;
66874;SDS011;53784;52.630;4.896;2023-08-24T01:39:18;7.28;;;4.50;;
66874;SDS011;53784;52.630;4.896;2023-08-24T01:41:49;8.60;;;3.95;;
66874;SDS011;53784;52.630;4.896;2023-08-24T01:44:15;8.93;;;4.30;;
66874;SDS011;53784;52.630;4.896;2023-08-24T01:46:43;9.48;;;4.03;;
66874;SDS011;53784;52.630;4.896;2023-08-24T01:49:11;8.15;;;4.22;;
66874;SDS011;53784;52.630;4.896;2023-08-24T01:51:37;8.32;;;3.83;;
66874;SDS011;53784;52.630;4.896;2023-08-24T01:54:03;8.18;;;3.42;;
66874;SDS011;53784;52.630;4.896;2023-08-24T01:56:28;5.55;;;2.90;;
66874;SDS011;53784;52.630;4.896;2023-08-24T01:58:54;8.55;;;3.10;;
66874;SDS011;53784;52.630;4.896;2023-08-24T02:01:19;7.25;;;3.13;;
66874;SDS011;53784;52.630;4.896;2023-08-24T02:03:50;6.65;;;3.08;;
66874;SDS011;53784;52.630;4.896;2023-08-24T02:06:15;6.10;;;2.80;;
66874;SDS011;53784;52.630;4.896;2023-08-24T02:08:40;5.88;;;2.83;;
66874;SDS011;53784;52.630;4.896;2023-08-24T02:11:06;7.90;;;3.28;;
66874;SDS011;53784;52.630;4.896;2023-08-24T02:13:32;7.50;;;3.35;;
66874;SDS011;53784;52.630;4.896;2023-08-24T02:16:01;7.13;;;3.13;;
66874;SDS011;53784;52.630;4.896;2023-08-24T02:18:30;9.38;;;3.63;;
66874;SDS011;53784;52.630;4.896;2023-08-24T02:20:55;7.35;;;3.25;;
66874;SDS011;53784;52.630;4.896;2023-08-24T02:23:20;7.43;;;3.38;;
66874;SDS011;53784;52.630;4.896;2023-08-24T02:25:47;5.80;;;3.45;;
66874;SDS011;53784;52.630;4.896;2023-08-24T02:28:12;9.07;;;3.72;;
66874;SDS011;53784;52.630;4.896;2023-08-24T02:30:37;8.68;;;3.20;;
66874;SDS011;53784;52.630;4.896;2023-08-24T02:33:04;7.30;;;3.20;;
66874;SDS011;53784;52.630;4.896;2023-08-24T02:35:29;5.65;;;3.53;;
66874;SDS011;53784;52.630;4.896;2023-08-24T02:37:54;7.95;;;3.65;;
66874;SDS011;53784;52.630;4.896;2023-08-24T02:40:21;9.27;;;3.72;;
66874;SDS011;53784;52.630;4.896;2023-08-24T02:42:47;8.50;;;3.55;;
66874;SDS011;53784;52.630;4.896;2023-08-24T02:45:12;7.90;;;3.65;;
66874;SDS011;53784;52.630;4.896;2023-08-24T02:47:41;5.97;;;3.63;;
66874;SDS011;53784;52.630;4.896;2023-08-24T02:50:07;8.10;;;4.20;;
66874;SDS011;53784;52.630;4.896;2023-08-24T02:52:32;7.90;;;4.05;;
66874;SDS011;53784;52.630;4.896;2023-08-24T02:54:58;8.05;;;3.80;;
66874;SDS011;53784;52.630;4.896;2023-08-24T02:57:23;9.00;;;4.38;;
66874;SDS011;53784;52.630;4.896;2023-08-24T02:59:49;7.63;;;4.40;;
66874;SDS011;53784;52.630;4.896;2023-08-24T03:02:14;7.07;;;4.32;;
66874;SDS011;53784;52.630;4.896;2023-08-24T03:04:39;10.10;;;4.50;;
66874;SDS011;53784;52.630;4.896;2023-08-24T03:07:05;10.40;;;4.55;;
66874;SDS011;53784;52.630;4.896;2023-08-24T03:09:32;7.45;;;4.70;;
66874;SDS011;53784;52.630;4.896;2023-08-24T03:11:59;9.02;;;4.60;;
66874;SDS011;53784;52.630;4.896;2023-08-24T03:14:24;9.15;;;4.60;;
66874;SDS011;53784;52.630;4.896;2023-08-24T03:16:49;9.38;;;4.50;;
66874;SDS011;53784;52.630;4.896;2023-08-24T03:19:15;8.30;;;4.82;;
66874;SDS011;53784;52.630;4.896;2023-08-24T03:21:42;7.70;;;4.82;;
66874;SDS011;53784;52.630;4.896;2023-08-24T03:24:08;7.60;;;4.45;;
66874;SDS011;53784;52.630;4.896;2023-08-24T03:26:34;8.90;;;5.00;;
66874;SDS011;53784;52.630;4.896;2023-08-24T03:28:59;10.13;;;5.20;;
66874;SDS011;53784;52.630;4.896;2023-08-24T03:31:24;9.20;;;5.40;;
66874;SDS011;53784;52.630;4.896;2023-08-24T03:33:51;11.05;;;5.32;;
66874;SDS011;53784;52.630;4.896;2023-08-24T03:36:16;8.50;;;5.07;;
66874;SDS011;53784;52.630;4.896;2023-08-24T03:38:41;8.30;;;4.80;;
66874;SDS011;53784;52.630;4.896;2023-08-24T03:41:07;8.55;;;5.20;;
66874;SDS011;53784;52.630;4.896;2023-08-24T03:43:32;8.13;;;5.38;;
66874;SDS011;53784;52.630;4.896;2023-08-24T03:45:59;10.95;;;5.50;;
66874;SDS011;53784;52.630;4.896;2023-08-24T03:48:25;8.80;;;5.10;;
66874;SDS011;53784;52.630;4.896;2023-08-24T03:50:53;9.10;;;5.00;;
66874;SDS011;53784;52.630;4.896;2023-08-24T03:53:19;7.50;;;4.88;;
66874;SDS011;53784;52.630;4.896;2023-08-24T03:55:47;10.88;;;4.82;;
66874;SDS011;53784;52.630;4.896;2023-08-24T03:58:13;9.13;;;5.00;;
66874;SDS011;53784;52.630;4.896;2023-08-24T04:00:39;9.77;;;4.70;;
66874;SDS011;53784;52.630;4.896;2023-08-24T04:03:04;8.55;;;4.63;;
66874;SDS011;53784;52.630;4.896;2023-08-24T04:05:29;7.68;;;4.35;;
66874;SDS011;53784;52.630;4.896;2023-08-24T04:07:55;7.53;;;4.00;;
66874;SDS011;53784;52.630;4.896;2023-08-24T04:10:20;8.18;;;4.57;;
66874;SDS011;53784;52.630;4.896;2023-08-24T04:12:46;8.32;;;4.28;;
66874;SDS011;53784;52.630;4.896;2023-08-24T04:15:12;8.60;;;4.60;;
66874;SDS011;53784;52.630;4.896;2023-08-24T04:17:38;8.48;;;4.65;;
66874;SDS011;53784;52.630;4.896;2023-08-24T04:20:03;9.43;;;4.82;;
66874;SDS011;53784;52.630;4.896;2023-08-24T04:22:31;9.20;;;4.80;;
66874;SDS011;53784;52.630;4.896;2023-08-24T04:24:57;7.65;;;4.97;;
66874;SDS011;53784;52.630;4.896;2023-08-24T04:27:22;8.23;;;4.57;;
66874;SDS011;53784;52.630;4.896;2023-08-24T04:29:47;10.50;;;4.38;;
66874;SDS011;53784;52.630;4.896;2023-08-24T04:32:13;9.07;;;4.90;;
66874;SDS011;53784;52.630;4.896;2023-08-24T04:34:39;10.20;;;5.03;;
66874;SDS011;53784;52.630;4.896;2023-08-24T04:37:05;7.20;;;4.78;;
66874;SDS011;53784;52.630;4.896;2023-08-24T04:39:31;7.57;;;4.65;;
66874;SDS011;53784;52.630;4.896;2023-08-24T04:41:57;7.13;;;4.45;;
66874;SDS011;53784;52.630;4.896;2023-08-24T04:44:22;8.82;;;4.18;;
66874;SDS011;53784;52.630;4.896;2023-08-24T04:46:49;9.68;;;4.93;;
66874;SDS011;53784;52.630;4.896;2023-08-24T04:49:14;8.63;;;5.05;;
66874;SDS011;53784;52.630;4.896;2023-08-24T04:51:39;7.95;;;4.57;;
66874;SDS011;53784;52.630;4.896;2023-08-24T04:54:05;10.25;;;4.70;;
66874;SDS011;53784;52.630;4.896;2023-08-24T04:56:30;8.80;;;5.07;;
66874;SDS011;53784;52.630;4.896;2023-08-24T04:58:56;7.88;;;5.00;;
66874;SDS011;53784;52.630;4.896;2023-08-24T05:01:22;11.15;;;5.22;;
66874;SDS011;53784;52.630;4.896;2023-08-24T05:03:49;7.78;;;4.70;;
66874;SDS011;53784;52.630;4.896;2023-08-24T05:06:15;8.38;;;4.90;;
66874;SDS011;53784;52.630;4.896;2023-08-24T05:08:40;8.65;;;4.57;;
66874;SDS011;53784;52.630;4.896;2023-08-24T05:11:12;7.78;;;4.80;;
66874;SDS011;53784;52.630;4.896;2023-08-24T05:13:39;9.48;;;4.43;;
66874;SDS011;53784;52.630;4.896;2023-08-24T05:16:05;6.68;;;3.80;;
66874;SDS011;53784;52.630;4.896;2023-08-24T05:18:30;8.80;;;4.35;;
66874;SDS011;53784;52.630;4.896;2023-08-24T05:20:58;6.72;;;4.18;;
66874;SDS011;53784;52.630;4.896;2023-08-24T05:23:24;7.38;;;4.13;;
66874;SDS011;53784;52.630;4.896;2023-08-24T05:25:49;6.07;;;4.10;;
66874;SDS011;53784;52.630;4.896;2023-08-24T05:28:14;11.73;;;4.05;;
66874;SDS011;53784;52.630;4.896;2023-08-24T05:30:40;7.57;;;3.85;;
66874;SDS011;53784;52.630;4.896;2023-08-24T05:33:05;7.68;;;4.40;;
66874;SDS011;53784;52.630;4.896;2023-08-24T05:35:30;9.70;;;4.10;;
66874;SDS011;53784;52.630;4.896;2023-08-24T05:37:56;9.15;;;4.20;;
66874;SDS011;53784;52.630;4.896;2023-08-24T05:40:21;7.38;;;3.63;;
66874;SDS011;53784;52.630;4.896;2023-08-24T05:42:46;11.48;;;4.28;;
66874;SDS011;53784;52.630;4.896;2023-08-24T05:45:12;6.75;;;3.67;;
66874;SDS011;53784;52.630;4.896;2023-08-24T05:47:37;6.00;;;3.70;;
66874;SDS011;53784;52.630;4.896;2023-08-24T05:50:02;7.57;;;3.60;;
66874;SDS011;53784;52.630;4.896;2023-08-24T05:52:28;6.22;;;3.60;;
66874;SDS011;53784;52.630;4.896;2023-08-24T05:54:53;9.43;;;3.97;;
66874;SDS011;53784;52.630;4.896;2023-08-24T05:57:19;7.28;;;3.75;;
66874;SDS011;53784;52.630;4.896;2023-08-24T05:59:44;7.20;;;3.80;;
66874;SDS011;53784;52.630;4.896;2023-08-24T06:02:09;9.07;;;4.03;;
66874;SDS011;53784;52.630;4.896;2023-08-24T06:04:36;8.10;;;4.10;;
66874;SDS011;53784;52.630;4.896;2023-08-24T06:07:01;7.05;;;4.15;;
66874;SDS011;53784;52.630;4.896;2023-08-24T06:09:29;8.82;;;4.07;;
66874;SDS011;53784;52.630;4.896;2023-08-24T06:11:54;8.35;;;3.90;;
66874;SDS011;53784;52.630;4.896;2023-08-24T06:14:20;6.72;;;4.10;;
66874;SDS011;53784;52.630;4.896;2023-08-24T06:16:45;6.57;;;3.72;;
66874;SDS011;53784;52.630;4.896;2023-08-24T06:19:10;11.20;;;3.90;;
66874;SDS011;53784;52.630;4.896;2023-08-24T06:21:36;9.63;;;3.80;;
66874;SDS011;53784;52.630;4.896;2023-08-24T06:24:01;9.35;;;3.95;;
66874;SDS011;53784;52.630;4.896;2023-08-24T06:26:29;8.20;;;3.70;;
66874;SDS011;53784;52.630;4.896;2023-08-24T06:28:55;8.35;;;3.60;;
66874;SDS011;53784;52.630;4.896;2023-08-24T06:31:20;7.40;;;3.67;;
66874;SDS011;53784;52.630;4.896;2023-08-24T06:33:46;7.35;;;3.80;;
66874;SDS011;53784;52.630;4.896;2023-08-24T06:36:11;6.53;;;3.60;;
66874;SDS011;53784;52.630;4.896;2023-08-24T06:38:37;6.30;;;3.33;;
66874;SDS011;53784;52.630;4.896;2023-08-24T06:41:02;6.20;;;3.38;;
66874;SDS011;53784;52.630;4.896;2023-08-24T06:43:27;7.43;;;3.50;;
66874;SDS011;53784;52.630;4.896;2023-08-24T06:45:56;6.35;;;3.45;;
66874;SDS011;53784;52.630;4.896;2023-08-24T06:48:23;7.93;;;3.47;;
66874;SDS011;53784;52.630;4.896;2023-08-24T06:50:48;8.00;;;3.85;;
66874;SDS011;53784;52.630;4.896;2023-08-24T06:53:14;6.75;;;3.85;;
66874;SDS011;53784;52.630;4.896;2023-08-24T06:55:40;7.95;;;3.80;;
66874;SDS011;53784;52.630;4.896;2023-08-24T06:58:05;6.53;;;3.40;;
66874;SDS011;53784;52.630;4.896;2023-08-24T07:00:31;7.88;;;4.00;;
66874;SDS011;53784;52.630;4.896;2023-08-24T07:02:56;6.90;;;3.65;;
66874;SDS011;53784;52.630;4.896;2023-08-24T07:05:22;8.70;;;3.80;;
66874;SDS011;53784;52.630;4.896;2023-08-24T07:07:49;8.13;;;3.80;;
66874;SDS011;53784;52.630;4.896;2023-08-24T07:10:15;6.45;;;3.80;;
66874;SDS011;53784;52.630;4.896;2023-08-24T07:12:40;7.50;;;3.78;;
66874;SDS011;53784;52.630;4.896;2023-08-24T07:15:06;5.75;;;3.47;;
66874;SDS011;53784;52.630;4.896;2023-08-24T07:17:32;8.45;;;3.55;;
66874;SDS011;53784;52.630;4.896;2023-08-24T07:19:58;6.47;;;3.83;;
66874;SDS011;53784;52.630;4.896;2023-08-24T07:22:23;7.38;;;3.90;;
66874;SDS011;53784;52.630;4.896;2023-08-24T07:24:51;9.00;;;4.47;;
66874;SDS011;53784;52.630;4.896;2023-08-24T07:27:18;6.97;;;4.57;;
66874;SDS011;53784;52.630;4.896;2023-08-24T07:29:43;9.35;;;4.20;;
66874;SDS011;53784;52.630;4.896;2023-08-24T07:32:08;9.23;;;4.78;;
66874;SDS011;53784;52.630;4.896;2023-08-24T07:34:34;7.25;;;4.30;;
66874;SDS011;53784;52.630;4.896;2023-08-24T07:36:59;6.35;;;4.07;;
66874;SDS011;53784;52.630;4.896;2023-08-24T07:39:24;5.53;;;4.00;;
66874;SDS011;53784;52.630;4.896;2023-08-24T07:41:51;6.97;;;3.90;;
66874;SDS011;53784;52.630;4.896;2023-08-24T07:44:16;7.63;;;4.00;;
66874;SDS011;53784;52.630;4.896;2023-08-24T07:46:42;9.38;;;4.43;;
66874;SDS011;53784;52.630;4.896;2023-08-24T07:49:07;6.43;;;4.38;;
66874;SDS011;53784;52.630;4.896;2023-08-24T07:51:33;8.38;;;4.80;;
66874;SDS011;53784;52.630;4.896;2023-08-24T07:53:58;8.18;;;4.85;;
66874;SDS011;53784;52.630;4.896;2023-08-24T07:56:24;7.72;;;4.93;;
66874;SDS011;53784;52.630;4.896;2023-08-24T07:58:49;8.88;;;4.15;;
66874;SDS011;53784;52.630;4.896;2023-08-24T08:01:14;7.47;;;4.80;;
66874;SDS011;53784;52.630;4.896;2023-08-24T08:03:40;7.73;;;5.20;;
66874;SDS011;53784;52.630;4.896;2023-08-24T08:06:05;8.10;;;5.30;;
66874;SDS011;53784;52.630;4.896;2023-08-24T08:08:30;10.03;;;4.90;;
66874;SDS011;53784;52.630;4.896;2023-08-24T08:10:59;10.30;;;5.40;;
66874;SDS011;53784;52.630;4.896;2023-08-24T08:13:26;10.27;;;5.80;;
66874;SDS011;53784;52.630;4.896;2023-08-24T08:15:52;9.20;;;5.35;;
66874;SDS011;53784;52.630;4.896;2023-08-24T08:18:18;10.65;;;5.35;;
66874;SDS011;53784;52.630;4.896;2023-08-24T08:20:43;9.90;;;5.82;;
66874;SDS011;53784;52.630;4.896;2023-08-24T08:23:08;9.48;;;5.85;;
66874;SDS011;53784;52.630;4.896;2023-08-24T08:25:34;12.63;;;6.32;;
66874;SDS011;53784;52.630;4.896;2023-08-24T08:27:59;13.38;;;6.32;;
66874;SDS011;53784;52.630;4.896;2023-08-24T08:30:26;8.77;;;6.53;;
66874;SDS011;53784;52.630;4.896;2023-08-24T08:32:51;9.57;;;6.40;;
66874;SDS011;53784;52.630;4.896;2023-08-24T08:35:17;9.60;;;7.00;;
66874;SDS011;53784;52.630;4.896;2023-08-24T08:37:45;10.63;;;7.22;;
66874;SDS011;53784;52.630;4.896;2023-08-24T08:40:11;12.85;;;6.65;;
66874;SDS011;53784;52.630;4.896;2023-08-24T08:42:36;17.20;;;7.28;;
66874;SDS011;53784;52.630;4.896;2023-08-24T08:45:02;11.38;;;7.15;;
66874;SDS011;53784;52.630;4.896;2023-08-24T08:47:29;11.85;;;7.20;;
66874;SDS011;53784;52.630;4.896;2023-08-24T08:49:55;11.60;;;7.30;;
66874;SDS011;53784;52.630;4.896;2023-08-24T08:52:21;11.30;;;6.90;;
66874;SDS011;53784;52.630;4.896;2023-08-24T08:54:46;10.18;;;6.72;;
66874;SDS011;53784;52.630;4.896;2023-08-24T08:57:12;11.70;;;7.00;;
66874;SDS011;53784;52.630;4.896;2023-08-24T08:59:39;14.88;;;8.02;;
66874;SDS011;53784;52.630;4.896;2023-08-24T09:02:04;11.00;;;7.30;;
66874;SDS011;53784;52.630;4.896;2023-08-24T09:04:33;11.90;;;8.07;;
66874;SDS011;53784;52.630;4.896;2023-08-24T09:07:01;13.95;;;8.35;;
66874;SDS011;53784;52.630;4.896;2023-08-24T09:09:29;16.42;;;8.75;;
66874;SDS011;53784;52.630;4.896;2023-08-24T09:11:55;15.98;;;9.27;;
66874;SDS011;53784;52.630;4.896;2023-08-24T09:14:21;14.77;;;8.90;;
66874;SDS011;53784;52.630;4.896;2023-08-24T09:16:46;14.07;;;8.77;;
66874;SDS011;53784;52.630;4.896;2023-08-24T09:19:12;16.48;;;9.10;;
66874;SDS011;53784;52.630;4.896;2023-08-24T09:21:38;14.13;;;8.77;;
66874;SDS011;53784;52.630;4.896;2023-08-24T09:24:05;18.88;;;9.13;;
66874;SDS011;53784;52.630;4.896;2023-08-24T09:26:36;13.93;;;8.27;;
66874;SDS011;53784;52.630;4.896;2023-08-24T09:29:12;19.02;;;8.73;;
66874;SDS011;53784;52.630;4.896;2023-08-24T09:31:39;15.88;;;9.85;;
66874;SDS011;53784;52.630;4.896;2023-08-24T09:34:04;16.50;;;9.50;;
66874;SDS011;53784;52.630;4.896;2023-08-24T09:36:31;14.88;;;9.35;;
66874;SDS011;53784;52.630;4.896;2023-08-24T09:39:00;17.65;;;9.73;;
66874;SDS011;53784;52.630;4.896;2023-08-24T09:41:36;15.05;;;9.38;;
66874;SDS011;53784;52.630;4.896;2023-08-24T09:44:05;16.70;;;9.95;;
66874;SDS011;53784;52.630;4.896;2023-08-24T09:46:31;15.63;;;9.80;;
66874;SDS011;53784;52.630;4.896;2023-08-24T09:48:57;17.20;;;10.85;;
66874;SDS011;53784;52.630;4.896;2023-08-24T09:51:25;17.27;;;10.50;;
66874;SDS011;53784;52.630;4.896;2023-08-24T09:53:51;17.17;;;10.65;;
66874;SDS011;53784;52.630;4.896;2023-08-24T09:56:17;18.27;;;10.55;;
66874;SDS011;53784;52.630;4.896;2023-08-24T09:58:45;17.23;;;11.95;;
66874;SDS011;53784;52.630;4.896;2023-08-24T10:01:11;15.98;;;11.30;;
66874;SDS011;53784;52.630;4.896;2023-08-24T10:03:39;19.98;;;12.40;;
66874;SDS011;53784;52.630;4.896;2023-08-24T10:06:05;20.58;;;11.73;;
66874;SDS011;53784;52.630;4.896;2023-08-24T10:08:35;19.63;;;12.73;;
66874;SDS011;53784;52.630;4.896;2023-08-24T10:11:03;20.65;;;12.07;;
66874;SDS011;53784;52.630;4.896;2023-08-24T10:16:18;18.75;;;12.07;;
66874;SDS011;53784;52.630;4.896;2023-08-24T10:18:44;19.80;;;13.23;;
66874;SDS011;53784;52.630;4.896;2023-08-24T10:21:10;21.73;;;14.13;;
66874;SDS011;53784;52.630;4.896;2023-08-24T10:23:36;20.38;;;13.88;;
66874;SDS011;53784;52.630;4.896;2023-08-24T10:26:03;22.77;;;14.10;;
66874;SDS011;53784;52.630;4.896;2023-08-24T10:28:31;21.58;;;13.82;;
66874;SDS011;53784;52.630;4.896;2023-08-24T10:30:58;25.75;;;15.52;;
66874;SDS011;53784;52.630;4.896;2023-08-24T10:33:24;21.30;;;14.85;;
66874;SDS011;53784;52.630;4.896;2023-08-24T10:35:51;22.52;;;14.70;;
66874;SDS011;53784;52.630;4.896;2023-08-24T10:38:22;24.20;;;14.73;;
66874;SDS011;53784;52.630;4.896;2023-08-24T10:40:49;20.20;;;13.52;;
66874;SDS011;53784;52.630;4.896;2023-08-24T10:43:15;26.25;;;15.00;;
66874;SDS011;53784;52.630;4.896;2023-08-24T10:56:29;85.82;;;18.40;;
66874;SDS011;53784;52.630;4.896;2023-08-24T10:59:13;42.20;;;16.95;;
66874;SDS011;53784;52.630;4.896;2023-08-24T11:01:43;43.80;;;17.38;;
66874;SDS011;53784;52.630;4.896;2023-08-24T11:04:19;70.63;;;16.75;;
66874;SDS011;53784;52.630;4.896;2023-08-24T11:06:55;40.72;;;16.88;;
66874;SDS011;53784;52.630;4.896;2023-08-24T11:09:24;51.65;;;18.13;;
66874;SDS011;53784;52.630;4.896;2023-08-24T11:11:57;109.72;;;22.05;;
66874;SDS011;53784;52.630;4.896;2023-08-24T11:14:26;62.42;;;20.05;;
66874;SDS011;53784;52.630;4.896;2023-08-24T11:16:55;69.32;;;19.30;;
66874;SDS011;53784;52.630;4.896;2023-08-24T11:19:22;40.00;;;17.40;;
66874;SDS011;53784;52.630;4.896;2023-08-24T11:21:48;70.20;;;18.98;;
66874;SDS011;53784;52.630;4.896;2023-08-24T11:24:13;46.97;;;19.02;;
66874;SDS011;53784;52.630;4.896;2023-08-24T11:26:39;47.17;;;19.00;;
66874;SDS011;53784;52.630;4.896;2023-08-24T11:29:14;59.38;;;20.02;;
66874;SDS011;53784;52.630;4.896;2023-08-24T11:31:43;67.78;;;20.52;;
66874;SDS011;53784;52.630;4.896;2023-08-24T11:34:09;56.60;;;19.67;;
66874;SDS011;53784;52.630;4.896;2023-08-24T11:36:42;29.45;;;16.90;;
66874;SDS011;53784;52.630;4.896;2023-08-24T11:39:14;26.90;;;14.80;;
66874;SDS011;53784;52.630;4.896;2023-08-24T11:42:02;19.67;;;13.15;;
66874;SDS011;53784;52.630;4.896;2023-08-24T11:44:28;14.95;;;9.88;;
66874;SDS011;53784;52.630;4.896;2023-08-24T11:46:56;19.73;;;11.82;;
66874;SDS011;53784;52.630;4.896;2023-08-24T11:49:22;18.35;;;10.40;;
66874;SDS011;53784;52.630;4.896;2023-08-24T11:51:48;14.23;;;10.27;;
66874;SDS011;53784;52.630;4.896;2023-08-24T11:54:15;13.27;;;9.23;;
66874;SDS011;53784;52.630;4.896;2023-08-24T11:56:42;12.90;;;9.02;;
66874;SDS011;53784;52.630;4.896;2023-08-24T11:59:10;15.85;;;9.75;;
66874;SDS011;53784;52.630;4.896;2023-08-24T12:01:38;16.27;;;10.52;;
66874;SDS011;53784;52.630;4.896;2023-08-24T12:04:04;18.20;;;11.68;;
66874;SDS011;53784;52.630;4.896;2023-08-24T12:06:30;16.67;;;11.52;;
66874;SDS011;53784;52.630;4.896;2023-08-24T12:08:55;17.58;;;12.32;;
66874;SDS011;53784;52.630;4.896;2023-08-24T12:11:21;18.50;;;12.02;;
66874;SDS011;53784;52.630;4.896;2023-08-24T12:13:52;17.20;;;10.43;;
66874;SDS011;53784;52.630;4.896;2023-08-24T12:16:19;12.13;;;8.60;;
66874;SDS011;53784;52.630;4.896;2023-08-24T12:18:51;11.60;;;7.63;;
66874;SDS011;53784;52.630;4.896;2023-08-24T12:21:18;10.35;;;7.00;;
66874;SDS011;53784;52.630;4.896;2023-08-24T12:23:44;8.93;;;6.00;;
66874;SDS011;53784;52.630;4.896;2023-08-24T12:26:20;8.75;;;5.78;;
66874;SDS011;53784;52.630;4.896;2023-08-24T12:28:49;9.05;;;4.78;;
66874;SDS011;53784;52.630;4.896;2023-08-24T12:31:16;7.13;;;4.20;;
66874;SDS011;53784;52.630;4.896;2023-08-24T12:33:42;5.60;;;3.72;;
66874;SDS011;53784;52.630;4.896;2023-08-24T12:36:08;8.45;;;4.88;;
66874;SDS011;53784;52.630;4.896;2023-08-24T12:38:33;6.70;;;4.25;;
66874;SDS011;53784;52.630;4.896;2023-08-24T12:41:00;7.50;;;4.28;;
66874;SDS011;53784;52.630;4.896;2023-08-24T12:43:26;7.28;;;4.10;;
66874;SDS011;53784;52.630;4.896;2023-08-24T12:45:51;6.38;;;3.90;;
66874;SDS011;53784;52.630;4.896;2023-08-24T12:48:16;5.72;;;3.58;;
66874;SDS011;53784;52.630;4.896;2023-08-24T12:50:42;7.57;;;3.28;;
66874;SDS011;53784;52.630;4.896;2023-08-24T12:53:07;6.45;;;3.55;;
66874;SDS011;53784;52.630;4.896;2023-08-24T12:55:33;9.10;;;3.30;;
66874;SDS011;53784;52.630;4.896;2023-08-24T12:57:58;5.80;;;3.40;;
66874;SDS011;53784;52.630;4.896;2023-08-24T13:00:24;6.53;;;3.50;;
66874;SDS011;53784;52.630;4.896;2023-08-24T13:02:49;5.63;;;3.22;;
66874;SDS011;53784;52.630;4.896;2023-08-24T13:05:15;5.47;;;3.53;;
66874;SDS011;53784;52.630;4.896;2023-08-24T13:07:40;6.13;;;3.60;;
66874;SDS011;53784;52.630;4.896;2023-08-24T13:10:06;5.85;;;3.30;;
66874;SDS011;53784;52.630;4.896;2023-08-24T13:12:32;5.43;;;3.00;;
66874;SDS011;53784;52.630;4.896;2023-08-24T13:14:57;6.95;;;3.90;;
66874;SDS011;53784;52.630;4.896;2023-08-24T13:17:22;9.27;;;6.10;;
66874;SDS011;53784;52.630;4.896;2023-08-24T13:19:48;7.15;;;5.22;;
66874;SDS011;53784;52.630;4.896;2023-08-24T13:22:16;6.38;;;3.67;;
66874;SDS011;53784;52.630;4.896;2023-08-24T13:24:41;9.02;;;4.07;;
66874;SDS011;53784;52.630;4.896;2023-08-24T13:27:09;6.97;;;3.80;;
66874;SDS011;53784;52.630;4.896;2023-08-24T13:29:38;7.60;;;4.00;;
66874;SDS011;53784;52.630;4.896;2023-08-24T13:32:05;6.43;;;3.85;;
66874;SDS011;53784;52.630;4.896;2023-08-24T13:34:30;6.72;;;3.60;;
66874;SDS011;53784;52.630;4.896;2023-08-24T13:36:58;4.80;;;3.22;;
66874;SDS011;53784;52.630;4.896;2023-08-24T13:39:26;5.25;;;2.75;;
66874;SDS011;53784;52.630;4.896;2023-08-24T13:41:58;6.32;;;2.60;;
66874;SDS011;53784;52.630;4.896;2023-08-24T13:44:24;5.65;;;2.70;;
66874;SDS011;53784;52.630;4.896;2023-08-24T13:46:50;6.07;;;3.53;;
66874;SDS011;53784;52.630;4.896;2023-08-24T13:49:17;9.50;;;6.20;;
66874;SDS011;53784;52.630;4.896;2023-08-24T13:51:43;9.68;;;6.50;;
66874;SDS011;53784;52.630;4.896;2023-08-24T13:54:15;8.88;;;6.95;;
66874;SDS011;53784;52.630;4.896;2023-08-24T13:56:43;9.75;;;7.38;;
66874;SDS011;53784;52.630;4.896;2023-08-24T13:59:09;7.95;;;5.72;;
66874;SDS011;53784;52.630;4.896;2023-08-24T14:01:34;9.65;;;6.13;;
66874;SDS011;53784;52.630;4.896;2023-08-24T14:04:00;8.98;;;5.75;;
66874;SDS011;53784;52.630;4.896;2023-08-24T14:06:27;10.73;;;6.53;;
66874;SDS011;53784;52.630;4.896;2023-08-24T14:08:53;8.70;;;5.78;;
66874;SDS011;53784;52.630;4.896;2023-08-24T14:11:19;8.63;;;5.80;;
66874;SDS011;53784;52.630;4.896;2023-08-24T14:13:44;7.72;;;5.53;;
66874;SDS011;53784;52.630;4.896;2023-08-24T14:16:09;7.53;;;5.20;;
66874;SDS011;53784;52.630;4.896;2023-08-24T14:18:35;9.38;;;5.57;;
66874;SDS011;53784;52.630;4.896;2023-08-24T14:21:01;7.82;;;5.22;;
66874;SDS011;53784;52.630;4.896;2023-08-24T14:23:27;9.40;;;5.93;;
66874;SDS011;53784;52.630;4.896;2023-08-24T14:25:52;8.20;;;5.25;;
66874;SDS011;53784;52.630;4.896;2023-08-24T14:28:18;7.53;;;5.20;;
66874;SDS011;53784;52.630;4.896;2023-08-24T14:30:44;9.02;;;5.50;;
66874;SDS011;53784;52.630;4.896;2023-08-24T14:33:10;10.85;;;5.60;;
66874;SDS011;53784;52.630;4.896;2023-08-24T14:35:35;8.90;;;5.18;;
66874;SDS011;53784;52.630;4.896;2023-08-24T14:38:00;9.00;;;5.35;;
66874;SDS011;53784;52.630;4.896;2023-08-24T14:40:26;8.32;;;5.38;;
66874;SDS011;53784;52.630;4.896;2023-08-24T14:42:51;7.68;;;4.57;;
66874;SDS011;53784;52.630;4.896;2023-08-24T14:45:16;10.70;;;5.13;;
66874;SDS011;53784;52.630;4.896;2023-08-24T14:47:42;8.63;;;4.82;;
66874;SDS011;53784;52.630;4.896;2023-08-24T14:50:07;8.60;;;5.15;;